sensor_id;sensor_type;location;lat;lon;timestamp;temperature;humidity
74488;DHT22;63019;51.080;13.642;2022-12-10T00:00:15;1.60;99.90
74488;DHT22;63019;51.080;13.642;2022-12-10T00:01:18;1.60;99.90
74488;DHT22;63019;51.080;13.642;2022-12-10T00:02:20;1.60;99.90
74488;DHT22;63019;51.080;13.642;2022-12-10T00:03:22;1.60;99.90
74488;DHT22;63019;51.080;13.642;2022-12-10T00:04:24;1.60;99.90
74488;DHT22;63019;51.080;13.642;2022-12-10T00:05:25;1.60;99.90
74488;DHT22;63019;51.080;13.642;2022-12-10T00:06:31;1.50;99.90
74488;DHT22;63019;51.080;13.642;2022-12-10T00:07:32;1.50;99.90
74488;DHT22;63019;51.080;13.642;2022-12-10T00:08:34;1.50;99.90
74488;DHT22;63019;51.080;13.642;2022-12-10T00:09:36;1.50;99.90
74488;DHT22;63019;51.080;13.642;2022-12-10T00:10:40;1.50;99.90
74488;DHT22;63019;51.080;13.642;2022-12-10T00:11:42;1.50;99.90
74488;DHT22;63019;51.080;13.642;2022-12-10T00:12:44;1.50;99.90
74488;DHT22;63019;51.080;13.642;2022-12-10T00:13:47;1.50;99.90
74488;DHT22;63019;51.080;13.642;2022-12-10T00:14:49;1.50;99.90
74488;DHT22;63019;51.080;13.642;2022-12-10T00:15:50;1.50;99.90
74488;DHT22;63019;51.080;13.642;2022-12-10T00:16:52;1.50;99.90
74488;DHT22;63019;51.080;13.642;2022-12-10T00:17:54;1.50;99.90
74488;DHT22;63019;51.080;13.642;2022-12-10T00:18:56;1.60;99.90
74488;DHT22;63019;51.080;13.642;2022-12-10T00:19:58;1.60;99.90
74488;DHT22;63019;51.080;13.642;2022-12-10T00:21:03;1.50;99.90
74488;DHT22;63019;51.080;13.642;2022-12-10T00:22:06;1.50;99.90
74488;DHT22;63019;51.080;13.642;2022-12-10T00:23:07;1.50;99.90
74488;DHT22;63019;51.080;13.642;2022-12-10T00:24:09;1.50;99.90
74488;DHT22;63019;51.080;13.642;2022-12-10T00:25:11;1.50;99.90
74488;DHT22;63019;51.080;13.642;2022-12-10T00:26:18;1.50;99.90
74488;DHT22;63019;51.080;13.642;2022-12-10T00:27:20;1.50;99.90
74488;DHT22;63019;51.080;13.642;2022-12-10T00:28:22;1.50;99.90
74488;DHT22;63019;51.080;13.642;2022-12-10T00:29:24;1.50;99.90
74488;DHT22;63019;51.080;13.642;2022-12-10T00:30:26;1.50;99.90
74488;DHT22;63019;51.080;13.642;2022-12-10T00:31:31;1.50;99.90
74488;DHT22;63019;51.080;13.642;2022-12-10T00:32:33;1.50;99.90
74488;DHT22;63019;51.080;13.642;2022-12-10T00:33:35;1.50;99.90
74488;DHT22;63019;51.080;13.642;2022-12-10T00:34:37;1.50;99.90
74488;DHT22;63019;51.080;13.642;2022-12-10T00:35:40;1.50;99.90
74488;DHT22;63019;51.080;13.642;2022-12-10T00:36:46;1.50;99.90
74488;DHT22;63019;51.080;13.642;2022-12-10T00:37:49;1.50;99.90
74488;DHT22;63019;51.080;13.642;2022-12-10T00:38:52;1.50;99.90
74488;DHT22;63019;51.080;13.642;2022-12-10T00:39:54;1.50;99.90
74488;DHT22;63019;51.080;13.642;2022-12-10T00:40:56;1.50;99.90
74488;DHT22;63019;51.080;13.642;2022-12-10T00:41:57;1.40;99.90
74488;DHT22;63019;51.080;13.642;2022-12-10T00:42:59;1.50;99.90
74488;DHT22;63019;51.080;13.642;2022-12-10T00:44:01;1.50;99.90
74488;DHT22;63019;51.080;13.642;2022-12-10T00:45:04;1.50;99.90
74488;DHT22;63019;51.080;13.642;2022-12-10T00:46:06;1.50;99.90
74488;DHT22;63019;51.080;13.642;2022-12-10T00:47:08;1.50;99.90
74488;DHT22;63019;51.080;13.642;2022-12-10T00:48:10;1.40;99.90
74488;DHT22;63019;51.080;13.642;2022-12-10T00:49:12;1.40;99.90
74488;DHT22;63019;51.080;13.642;2022-12-10T00:50:14;1.50;99.90
74488;DHT22;63019;51.080;13.642;2022-12-10T00:51:21;1.50;99.90
74488;DHT22;63019;51.080;13.642;2022-12-10T00:52:23;1.50;99.90
74488;DHT22;63019;51.080;13.642;2022-12-10T00:53:25;1.50;99.90
74488;DHT22;63019;51.080;13.642;2022-12-10T00:54:27;1.50;99.90
74488;DHT22;63019;51.080;13.642;2022-12-10T00:55:29;1.50;99.90
74488;DHT22;63019;51.080;13.642;2022-12-10T00:56:32;1.50;99.90
74488;DHT22;63019;51.080;13.642;2022-12-10T00:57:34;1.50;99.90
74488;DHT22;63019;51.080;13.642;2022-12-10T00:58:37;1.50;99.90
74488;DHT22;63019;51.080;13.642;2022-12-10T00:59:39;1.50;99.90
74488;DHT22;63019;51.080;13.642;2022-12-10T01:00:40;1.50;99.90
74488;DHT22;63019;51.080;13.642;2022-12-10T01:01:42;1.50;99.90
74488;DHT22;63019;51.080;13.642;2022-12-10T01:02:44;1.50;99.90
74488;DHT22;63019;51.080;13.642;2022-12-10T01:03:47;1.50;99.90
74488;DHT22;63019;51.080;13.642;2022-12-10T01:04:53;1.50;99.90
74488;DHT22;63019;51.080;13.642;2022-12-10T01:05:55;1.50;99.90
74488;DHT22;63019;51.080;13.642;2022-12-10T01:06:57;1.40;99.90
74488;DHT22;63019;51.080;13.642;2022-12-10T01:08:01;1.40;99.90
74488;DHT22;63019;51.080;13.642;2022-12-10T01:09:05;1.40;99.90
74488;DHT22;63019;51.080;13.642;2022-12-10T01:10:07;1.40;99.90
74488;DHT22;63019;51.080;13.642;2022-12-10T01:11:12;1.40;99.90
74488;DHT22;63019;51.080;13.642;2022-12-10T01:12:15;1.40;99.90
74488;DHT22;63019;51.080;13.642;2022-12-10T01:13:16;1.40;99.90
74488;DHT22;63019;51.080;13.642;2022-12-10T01:14:22;1.50;99.90
74488;DHT22;63019;51.080;13.642;2022-12-10T01:15:24;1.50;99.90
74488;DHT22;63019;51.080;13.642;2022-12-10T01:16:26;1.40;99.90
74488;DHT22;63019;51.080;13.642;2022-12-10T01:17:28;1.50;99.90
74488;DHT22;63019;51.080;13.642;2022-12-10T01:18:31;1.50;99.90
74488;DHT22;63019;51.080;13.642;2022-12-10T01:19:33;1.50;99.90
74488;DHT22;63019;51.080;13.642;2022-12-10T01:20:36;1.50;99.90
74488;DHT22;63019;51.080;13.642;2022-12-10T01:21:38;1.50;99.90
74488;DHT22;63019;51.080;13.642;2022-12-10T01:22:40;1.50;99.90
74488;DHT22;63019;51.080;13.642;2022-12-10T01:23:43;1.50;99.90
74488;DHT22;63019;51.080;13.642;2022-12-10T01:24:45;1.50;99.90
74488;DHT22;63019;51.080;13.642;2022-12-10T01:25:47;1.40;99.90
74488;DHT22;63019;51.080;13.642;2022-12-10T01:26:49;1.40;99.90
74488;DHT22;63019;51.080;13.642;2022-12-10T01:27:50;1.50;99.90
74488;DHT22;63019;51.080;13.642;2022-12-10T01:28:53;1.50;99.90
74488;DHT22;63019;51.080;13.642;2022-12-10T01:29:55;1.40;99.90
74488;DHT22;63019;51.080;13.642;2022-12-10T01:31:02;1.40;99.90
74488;DHT22;63019;51.080;13.642;2022-12-10T01:32:04;1.40;99.90
74488;DHT22;63019;51.080;13.642;2022-12-10T01:33:06;1.40;99.90
74488;DHT22;63019;51.080;13.642;2022-12-10T01:34:12;1.40;99.90
74488;DHT22;63019;51.080;13.642;2022-12-10T01:35:14;1.40;99.90
74488;DHT22;63019;51.080;13.642;2022-12-10T01:37:20;1.40;99.90
74488;DHT22;63019;51.080;13.642;2022-12-10T01:38:22;1.40;99.90
74488;DHT22;63019;51.080;13.642;2022-12-10T01:39:24;1.50;99.90
74488;DHT22;63019;51.080;13.642;2022-12-10T01:40:27;1.40;99.90
74488;DHT22;63019;51.080;13.642;2022-12-10T01:41:36;1.40;99.90
74488;DHT22;63019;51.080;13.642;2022-12-10T01:42:38;1.40;99.90
74488;DHT22;63019;51.080;13.642;2022-12-10T01:43:58;1.40;99.90
74488;DHT22;63019;51.080;13.642;2022-12-10T01:45:05;1.40;99.90
74488;DHT22;63019;51.080;13.642;2022-12-10T01:46:07;1.40;99.90
74488;DHT22;63019;51.080;13.642;2022-12-10T01:47:09;1.40;99.90
74488;DHT22;63019;51.080;13.642;2022-12-10T01:48:11;1.40;99.90
74488;DHT22;63019;51.080;13.642;2022-12-10T01:49:31;1.50;99.90
74488;DHT22;63019;51.080;13.642;2022-12-10T01:50:34;1.50;99.90
74488;DHT22;63019;51.080;13.642;2022-12-10T01:51:37;1.50;99.90
74488;DHT22;63019;51.080;13.642;2022-12-10T01:52:40;1.50;99.90
74488;DHT22;63019;51.080;13.642;2022-12-10T01:53:43;1.50;99.90
74488;DHT22;63019;51.080;13.642;2022-12-10T01:54:46;1.50;99.90
74488;DHT22;63019;51.080;13.642;2022-12-10T01:55:50;1.50;99.90
74488;DHT22;63019;51.080;13.642;2022-12-10T01:56:59;1.50;99.90
74488;DHT22;63019;51.080;13.642;2022-12-10T01:58:01;1.40;99.90
74488;DHT22;63019;51.080;13.642;2022-12-10T01:59:03;1.40;99.90
74488;DHT22;63019;51.080;13.642;2022-12-10T02:00:06;1.40;99.90
74488;DHT22;63019;51.080;13.642;2022-12-10T02:01:11;1.40;99.90
74488;DHT22;63019;51.080;13.642;2022-12-10T02:03:33;1.40;99.90
74488;DHT22;63019;51.080;13.642;2022-12-10T02:05:58;1.30;99.90
74488;DHT22;63019;51.080;13.642;2022-12-10T02:08:25;1.40;99.90
74488;DHT22;63019;51.080;13.642;2022-12-10T02:09:33;1.40;99.90
74488;DHT22;63019;51.080;13.642;2022-12-10T02:13:18;1.30;99.90
74488;DHT22;63019;51.080;13.642;2022-12-10T02:15:04;1.40;99.90
74488;DHT22;63019;51.080;13.642;2022-12-10T02:16:06;1.40;99.90
74488;DHT22;63019;51.080;13.642;2022-12-10T02:20:35;1.40;99.90
74488;DHT22;63019;51.080;13.642;2022-12-10T02:21:40;1.40;99.90
74488;DHT22;63019;51.080;13.642;2022-12-10T02:22:55;1.40;99.90
74488;DHT22;63019;51.080;13.642;2022-12-10T02:24:03;1.40;99.90
74488;DHT22;63019;51.080;13.642;2022-12-10T02:25:07;1.40;99.90
74488;DHT22;63019;51.080;13.642;2022-12-10T02:27:21;1.40;99.90
74488;DHT22;63019;51.080;13.642;2022-12-10T02:29:30;1.40;99.90
74488;DHT22;63019;51.080;13.642;2022-12-10T02:30:33;1.40;99.90
74488;DHT22;63019;51.080;13.642;2022-12-10T02:31:37;1.40;99.90
74488;DHT22;63019;51.080;13.642;2022-12-10T02:32:43;1.40;99.90
74488;DHT22;63019;51.080;13.642;2022-12-10T02:33:50;1.40;99.90
74488;DHT22;63019;51.080;13.642;2022-12-10T02:34:58;1.40;99.90
74488;DHT22;63019;51.080;13.642;2022-12-10T02:36:10;1.40;99.90
74488;DHT22;63019;51.080;13.642;2022-12-10T02:37:21;1.40;99.90
74488;DHT22;63019;51.080;13.642;2022-12-10T02:38:29;1.30;99.90
74488;DHT22;63019;51.080;13.642;2022-12-10T02:39:38;1.30;99.90
74488;DHT22;63019;51.080;13.642;2022-12-10T02:40:46;1.30;99.90
74488;DHT22;63019;51.080;13.642;2022-12-10T02:41:54;1.30;99.90
74488;DHT22;63019;51.080;13.642;2022-12-10T02:42:56;1.30;99.90
74488;DHT22;63019;51.080;13.642;2022-12-10T02:44:00;1.30;99.90
74488;DHT22;63019;51.080;13.642;2022-12-10T02:45:03;1.40;99.90
74488;DHT22;63019;51.080;13.642;2022-12-10T02:46:06;1.30;99.90
74488;DHT22;63019;51.080;13.642;2022-12-10T02:47:09;1.30;99.90
74488;DHT22;63019;51.080;13.642;2022-12-10T02:48:12;1.30;99.90
74488;DHT22;63019;51.080;13.642;2022-12-10T02:49:16;1.30;99.90
74488;DHT22;63019;51.080;13.642;2022-12-10T02:50:19;1.30;99.90
74488;DHT22;63019;51.080;13.642;2022-12-10T02:51:22;1.30;99.90
74488;DHT22;63019;51.080;13.642;2022-12-10T02:52:24;1.30;99.90
74488;DHT22;63019;51.080;13.642;2022-12-10T02:53:26;1.30;99.90
74488;DHT22;63019;51.080;13.642;2022-12-10T02:54:41;1.30;99.90
74488;DHT22;63019;51.080;13.642;2022-12-10T02:57:07;1.30;99.90
74488;DHT22;63019;51.080;13.642;2022-12-10T02:58:45;1.30;99.90
74488;DHT22;63019;51.080;13.642;2022-12-10T02:59:49;1.30;99.90
74488;DHT22;63019;51.080;13.642;2022-12-10T03:01:12;1.30;99.90
74488;DHT22;63019;51.080;13.642;2022-12-10T03:04:03;1.30;99.90
74488;DHT22;63019;51.080;13.642;2022-12-10T03:06:40;1.30;99.90
74488;DHT22;63019;51.080;13.642;2022-12-10T03:08:03;1.30;99.90
74488;DHT22;63019;51.080;13.642;2022-12-10T03:09:12;1.20;99.90
74488;DHT22;63019;51.080;13.642;2022-12-10T03:10:26;1.30;99.90
74488;DHT22;63019;51.080;13.642;2022-12-10T03:11:29;1.30;99.90
74488;DHT22;63019;51.080;13.642;2022-12-10T03:12:54;1.30;99.90
74488;DHT22;63019;51.080;13.642;2022-12-10T03:14:16;1.30;99.90
74488;DHT22;63019;51.080;13.642;2022-12-10T03:15:21;1.30;99.90
74488;DHT22;63019;51.080;13.642;2022-12-10T03:16:24;1.30;99.90
74488;DHT22;63019;51.080;13.642;2022-12-10T03:17:29;1.30;99.90
74488;DHT22;63019;51.080;13.642;2022-12-10T03:18:34;1.30;99.90
74488;DHT22;63019;51.080;13.642;2022-12-10T03:19:40;1.30;99.90
74488;DHT22;63019;51.080;13.642;2022-12-10T03:20:45;1.30;99.90
74488;DHT22;63019;51.080;13.642;2022-12-10T03:21:48;1.30;99.90
74488;DHT22;63019;51.080;13.642;2022-12-10T03:22:51;1.30;99.90
74488;DHT22;63019;51.080;13.642;2022-12-10T03:23:53;1.30;99.90
74488;DHT22;63019;51.080;13.642;2022-12-10T03:24:57;1.30;99.90
74488;DHT22;63019;51.080;13.642;2022-12-10T03:26:00;1.40;99.90
74488;DHT22;63019;51.080;13.642;2022-12-10T03:27:04;1.40;99.90
74488;DHT22;63019;51.080;13.642;2022-12-10T03:28:07;1.30;99.90
74488;DHT22;63019;51.080;13.642;2022-12-10T03:29:14;1.30;99.90
74488;DHT22;63019;51.080;13.642;2022-12-10T03:30:18;1.30;99.90
74488;DHT22;63019;51.080;13.642;2022-12-10T03:31:21;1.30;99.90
74488;DHT22;63019;51.080;13.642;2022-12-10T03:32:25;1.30;99.90
74488;DHT22;63019;51.080;13.642;2022-12-10T03:33:28;1.20;99.90
74488;DHT22;63019;51.080;13.642;2022-12-10T03:34:30;1.20;99.90
74488;DHT22;63019;51.080;13.642;2022-12-10T03:35:32;1.20;99.90
74488;DHT22;63019;51.080;13.642;2022-12-10T03:36:34;1.30;99.90
74488;DHT22;63019;51.080;13.642;2022-12-10T03:37:36;1.20;99.90
74488;DHT22;63019;51.080;13.642;2022-12-10T03:38:39;1.20;99.90
74488;DHT22;63019;51.080;13.642;2022-12-10T03:39:42;1.20;99.90
74488;DHT22;63019;51.080;13.642;2022-12-10T03:40:44;1.20;99.90
74488;DHT22;63019;51.080;13.642;2022-12-10T03:41:46;1.20;99.90
74488;DHT22;63019;51.080;13.642;2022-12-10T03:42:48;1.30;99.90
74488;DHT22;63019;51.080;13.642;2022-12-10T03:43:57;1.20;99.90
74488;DHT22;63019;51.080;13.642;2022-12-10T03:44:59;1.20;99.90
74488;DHT22;63019;51.080;13.642;2022-12-10T03:46:01;1.20;99.90
74488;DHT22;63019;51.080;13.642;2022-12-10T03:47:05;1.30;99.90
74488;DHT22;63019;51.080;13.642;2022-12-10T03:48:07;1.30;99.90
74488;DHT22;63019;51.080;13.642;2022-12-10T03:49:09;1.20;99.90
74488;DHT22;63019;51.080;13.642;2022-12-10T03:50:11;1.30;99.90
74488;DHT22;63019;51.080;13.642;2022-12-10T03:51:13;1.20;99.90
74488;DHT22;63019;51.080;13.642;2022-12-10T03:52:15;1.20;99.90
74488;DHT22;63019;51.080;13.642;2022-12-10T03:53:17;1.20;99.90
74488;DHT22;63019;51.080;13.642;2022-12-10T03:54:19;1.20;99.90
74488;DHT22;63019;51.080;13.642;2022-12-10T03:55:21;1.20;99.90
74488;DHT22;63019;51.080;13.642;2022-12-10T03:56:23;1.20;99.90
74488;DHT22;63019;51.080;13.642;2022-12-10T03:57:24;1.30;99.90
74488;DHT22;63019;51.080;13.642;2022-12-10T03:58:26;1.30;99.90
74488;DHT22;63019;51.080;13.642;2022-12-10T03:59:28;1.30;99.90
74488;DHT22;63019;51.080;13.642;2022-12-10T04:00:30;1.20;99.90
74488;DHT22;63019;51.080;13.642;2022-12-10T04:01:32;1.20;99.90
74488;DHT22;63019;51.080;13.642;2022-12-10T04:02:33;1.30;99.90
74488;DHT22;63019;51.080;13.642;2022-12-10T04:03:36;1.30;99.90
74488;DHT22;63019;51.080;13.642;2022-12-10T04:04:39;1.20;99.90
74488;DHT22;63019;51.080;13.642;2022-12-10T04:05:41;1.20;99.90
74488;DHT22;63019;51.080;13.642;2022-12-10T04:06:42;1.20;99.90
74488;DHT22;63019;51.080;13.642;2022-12-10T04:07:44;1.20;99.90
74488;DHT22;63019;51.080;13.642;2022-12-10T04:08:47;1.30;99.90
74488;DHT22;63019;51.080;13.642;2022-12-10T04:09:54;1.20;99.90
74488;DHT22;63019;51.080;13.642;2022-12-10T04:11:03;1.20;99.90
74488;DHT22;63019;51.080;13.642;2022-12-10T04:12:05;1.20;99.90
74488;DHT22;63019;51.080;13.642;2022-12-10T04:13:07;1.20;99.90
74488;DHT22;63019;51.080;13.642;2022-12-10T04:14:28;1.20;99.90
74488;DHT22;63019;51.080;13.642;2022-12-10T04:15:48;1.20;99.90
74488;DHT22;63019;51.080;13.642;2022-12-10T04:17:09;1.20;99.90
74488;DHT22;63019;51.080;13.642;2022-12-10T04:18:11;1.20;99.90
74488;DHT22;63019;51.080;13.642;2022-12-10T04:19:15;1.20;99.90
74488;DHT22;63019;51.080;13.642;2022-12-10T04:20:17;1.20;99.90
74488;DHT22;63019;51.080;13.642;2022-12-10T04:21:39;1.20;99.90
74488;DHT22;63019;51.080;13.642;2022-12-10T04:23:00;1.20;99.90
74488;DHT22;63019;51.080;13.642;2022-12-10T04:24:23;1.20;99.90
74488;DHT22;63019;51.080;13.642;2022-12-10T04:25:44;1.20;99.90
74488;DHT22;63019;51.080;13.642;2022-12-10T04:27:10;1.20;99.90
74488;DHT22;63019;51.080;13.642;2022-12-10T04:28:12;1.20;99.90
74488;DHT22;63019;51.080;13.642;2022-12-10T04:29:14;1.20;99.90
74488;DHT22;63019;51.080;13.642;2022-12-10T04:30:16;1.20;99.90
74488;DHT22;63019;51.080;13.642;2022-12-10T04:31:17;1.20;99.90
74488;DHT22;63019;51.080;13.642;2022-12-10T04:32:20;1.20;99.90
74488;DHT22;63019;51.080;13.642;2022-12-10T04:33:22;1.30;99.90
74488;DHT22;63019;51.080;13.642;2022-12-10T04:34:24;1.20;99.90
74488;DHT22;63019;51.080;13.642;2022-12-10T04:35:26;1.30;99.90
74488;DHT22;63019;51.080;13.642;2022-12-10T04:36:28;1.30;99.90
74488;DHT22;63019;51.080;13.642;2022-12-10T04:37:30;1.20;99.90
74488;DHT22;63019;51.080;13.642;2022-12-10T04:38:32;1.30;99.90
74488;DHT22;63019;51.080;13.642;2022-12-10T04:39:34;1.30;99.90
74488;DHT22;63019;51.080;13.642;2022-12-10T04:40:35;1.30;99.90
74488;DHT22;63019;51.080;13.642;2022-12-10T04:41:40;1.30;99.90
74488;DHT22;63019;51.080;13.642;2022-12-10T04:42:42;1.20;99.90
74488;DHT22;63019;51.080;13.642;2022-12-10T04:43:44;1.30;99.90
74488;DHT22;63019;51.080;13.642;2022-12-10T04:44:46;1.30;99.90
74488;DHT22;63019;51.080;13.642;2022-12-10T04:45:47;1.20;99.90
74488;DHT22;63019;51.080;13.642;2022-12-10T04:46:49;1.20;99.90
74488;DHT22;63019;51.080;13.642;2022-12-10T04:47:51;1.30;99.90
74488;DHT22;63019;51.080;13.642;2022-12-10T04:48:53;1.20;99.90
74488;DHT22;63019;51.080;13.642;2022-12-10T04:49:55;1.20;99.90
74488;DHT22;63019;51.080;13.642;2022-12-10T04:50:57;1.20;99.90
74488;DHT22;63019;51.080;13.642;2022-12-10T04:51:58;1.20;99.90
74488;DHT22;63019;51.080;13.642;2022-12-10T04:53:00;1.20;99.90
74488;DHT22;63019;51.080;13.642;2022-12-10T04:54:02;1.20;99.90
74488;DHT22;63019;51.080;13.642;2022-12-10T04:55:04;1.30;99.90
74488;DHT22;63019;51.080;13.642;2022-12-10T04:56:07;1.20;99.90
74488;DHT22;63019;51.080;13.642;2022-12-10T04:57:09;1.20;99.90
74488;DHT22;63019;51.080;13.642;2022-12-10T04:58:11;1.20;99.90
74488;DHT22;63019;51.080;13.642;2022-12-10T04:59:14;1.20;99.90
74488;DHT22;63019;51.080;13.642;2022-12-10T05:00:16;1.20;99.90
74488;DHT22;63019;51.080;13.642;2022-12-10T05:01:18;1.20;99.90
74488;DHT22;63019;51.080;13.642;2022-12-10T05:02:22;1.20;99.90
74488;DHT22;63019;51.080;13.642;2022-12-10T05:03:24;1.20;99.90
74488;DHT22;63019;51.080;13.642;2022-12-10T05:04:26;1.20;99.90
74488;DHT22;63019;51.080;13.642;2022-12-10T05:05:28;1.20;99.90
74488;DHT22;63019;51.080;13.642;2022-12-10T05:06:30;1.20;99.90
74488;DHT22;63019;51.080;13.642;2022-12-10T05:07:32;1.20;99.90
74488;DHT22;63019;51.080;13.642;2022-12-10T05:08:35;1.20;99.90
74488;DHT22;63019;51.080;13.642;2022-12-10T05:09:38;1.20;99.90
74488;DHT22;63019;51.080;13.642;2022-12-10T05:10:39;1.20;99.90
74488;DHT22;63019;51.080;13.642;2022-12-10T05:11:43;1.20;99.90
74488;DHT22;63019;51.080;13.642;2022-12-10T05:12:45;1.20;99.90
74488;DHT22;63019;51.080;13.642;2022-12-10T05:13:47;1.20;99.90
74488;DHT22;63019;51.080;13.642;2022-12-10T05:14:49;1.20;99.90
74488;DHT22;63019;51.080;13.642;2022-12-10T05:15:51;1.20;99.90
74488;DHT22;63019;51.080;13.642;2022-12-10T05:16:53;1.20;99.90
74488;DHT22;63019;51.080;13.642;2022-12-10T05:17:54;1.20;99.90
74488;DHT22;63019;51.080;13.642;2022-12-10T05:18:57;1.20;99.90
74488;DHT22;63019;51.080;13.642;2022-12-10T05:19:58;1.20;99.90
74488;DHT22;63019;51.080;13.642;2022-12-10T05:21:02;1.20;99.90
74488;DHT22;63019;51.080;13.642;2022-12-10T05:22:04;1.20;99.90
74488;DHT22;63019;51.080;13.642;2022-12-10T05:23:25;1.10;99.90
74488;DHT22;63019;51.080;13.642;2022-12-10T05:24:29;1.20;99.90
74488;DHT22;63019;51.080;13.642;2022-12-10T05:25:31;1.20;99.90
74488;DHT22;63019;51.080;13.642;2022-12-10T05:26:53;1.20;99.90
74488;DHT22;63019;51.080;13.642;2022-12-10T05:27:55;1.20;99.90
74488;DHT22;63019;51.080;13.642;2022-12-10T05:28:56;1.20;99.90
74488;DHT22;63019;51.080;13.642;2022-12-10T05:29:58;1.20;99.90
74488;DHT22;63019;51.080;13.642;2022-12-10T05:31:00;1.20;99.90
74488;DHT22;63019;51.080;13.642;2022-12-10T05:32:03;1.20;99.90
74488;DHT22;63019;51.080;13.642;2022-12-10T05:33:06;1.20;99.90
74488;DHT22;63019;51.080;13.642;2022-12-10T05:34:10;1.20;99.90
74488;DHT22;63019;51.080;13.642;2022-12-10T05:35:12;1.20;99.90
74488;DHT22;63019;51.080;13.642;2022-12-10T05:36:16;1.20;99.90
74488;DHT22;63019;51.080;13.642;2022-12-10T05:37:18;1.20;99.90
74488;DHT22;63019;51.080;13.642;2022-12-10T05:38:20;1.20;99.90
74488;DHT22;63019;51.080;13.642;2022-12-10T05:39:22;1.20;99.90
74488;DHT22;63019;51.080;13.642;2022-12-10T05:40:24;1.10;99.90
74488;DHT22;63019;51.080;13.642;2022-12-10T05:41:28;1.20;99.90
74488;DHT22;63019;51.080;13.642;2022-12-10T05:42:30;1.10;99.90
74488;DHT22;63019;51.080;13.642;2022-12-10T05:43:32;1.20;99.90
74488;DHT22;63019;51.080;13.642;2022-12-10T05:44:34;1.20;99.90
74488;DHT22;63019;51.080;13.642;2022-12-10T05:45:35;1.10;99.90
74488;DHT22;63019;51.080;13.642;2022-12-10T05:46:37;1.10;99.90
74488;DHT22;63019;51.080;13.642;2022-12-10T05:47:39;1.10;99.90
74488;DHT22;63019;51.080;13.642;2022-12-10T05:48:41;1.10;99.90
74488;DHT22;63019;51.080;13.642;2022-12-10T05:49:43;1.10;99.90
74488;DHT22;63019;51.080;13.642;2022-12-10T05:50:52;1.10;99.90
74488;DHT22;63019;51.080;13.642;2022-12-10T05:51:54;1.10;99.90
74488;DHT22;63019;51.080;13.642;2022-12-10T05:52:57;1.10;99.90
74488;DHT22;63019;51.080;13.642;2022-12-10T05:54:00;1.10;99.90
74488;DHT22;63019;51.080;13.642;2022-12-10T05:55:05;1.10;99.90
74488;DHT22;63019;51.080;13.642;2022-12-10T05:56:10;1.10;99.90
74488;DHT22;63019;51.080;13.642;2022-12-10T05:57:12;1.10;99.90
74488;DHT22;63019;51.080;13.642;2022-12-10T05:58:14;1.00;99.90
74488;DHT22;63019;51.080;13.642;2022-12-10T05:59:16;1.00;99.90
74488;DHT22;63019;51.080;13.642;2022-12-10T06:00:18;1.00;99.90
74488;DHT22;63019;51.080;13.642;2022-12-10T06:01:22;1.00;99.90
74488;DHT22;63019;51.080;13.642;2022-12-10T06:02:24;1.00;99.90
74488;DHT22;63019;51.080;13.642;2022-12-10T06:03:27;1.00;99.90
74488;DHT22;63019;51.080;13.642;2022-12-10T06:04:29;1.00;99.90
74488;DHT22;63019;51.080;13.642;2022-12-10T06:05:37;1.00;99.90
74488;DHT22;63019;51.080;13.642;2022-12-10T06:06:39;1.00;99.90
74488;DHT22;63019;51.080;13.642;2022-12-10T06:07:41;1.00;99.90
74488;DHT22;63019;51.080;13.642;2022-12-10T06:08:43;1.00;99.90
74488;DHT22;63019;51.080;13.642;2022-12-10T06:09:45;1.00;99.90
74488;DHT22;63019;51.080;13.642;2022-12-10T06:10:46;1.00;99.90
74488;DHT22;63019;51.080;13.642;2022-12-10T06:11:48;1.00;99.90
74488;DHT22;63019;51.080;13.642;2022-12-10T06:12:50;1.00;99.90
74488;DHT22;63019;51.080;13.642;2022-12-10T06:13:53;1.00;99.90
74488;DHT22;63019;51.080;13.642;2022-12-10T06:14:57;1.00;99.90
74488;DHT22;63019;51.080;13.642;2022-12-10T06:15:59;0.90;99.90
74488;DHT22;63019;51.080;13.642;2022-12-10T06:17:00;1.00;99.90
74488;DHT22;63019;51.080;13.642;2022-12-10T06:18:02;1.00;99.90
74488;DHT22;63019;51.080;13.642;2022-12-10T06:19:04;1.00;99.90
74488;DHT22;63019;51.080;13.642;2022-12-10T06:20:06;1.00;99.90
74488;DHT22;63019;51.080;13.642;2022-12-10T06:21:18;1.00;99.90
74488;DHT22;63019;51.080;13.642;2022-12-10T06:22:20;1.00;99.90
74488;DHT22;63019;51.080;13.642;2022-12-10T06:23:22;1.00;99.90
74488;DHT22;63019;51.080;13.642;2022-12-10T06:24:24;1.00;99.90
74488;DHT22;63019;51.080;13.642;2022-12-10T06:25:26;1.00;99.90
74488;DHT22;63019;51.080;13.642;2022-12-10T06:26:28;1.00;99.90
74488;DHT22;63019;51.080;13.642;2022-12-10T06:27:30;1.00;99.90
74488;DHT22;63019;51.080;13.642;2022-12-10T06:28:32;1.00;99.90
74488;DHT22;63019;51.080;13.642;2022-12-10T06:29:34;1.00;99.90
74488;DHT22;63019;51.080;13.642;2022-12-10T06:30:36;1.00;99.90
74488;DHT22;63019;51.080;13.642;2022-12-10T06:31:38;1.00;99.90
74488;DHT22;63019;51.080;13.642;2022-12-10T06:32:40;1.00;99.90
74488;DHT22;63019;51.080;13.642;2022-12-10T06:33:44;1.00;99.90
74488;DHT22;63019;51.080;13.642;2022-12-10T06:34:46;1.00;99.90
74488;DHT22;63019;51.080;13.642;2022-12-10T06:35:48;1.00;99.90
74488;DHT22;63019;51.080;13.642;2022-12-10T06:36:50;1.00;99.90
74488;DHT22;63019;51.080;13.642;2022-12-10T06:37:52;1.00;99.90
74488;DHT22;63019;51.080;13.642;2022-12-10T06:38:54;1.00;99.90
74488;DHT22;63019;51.080;13.642;2022-12-10T06:39:55;0.90;99.90
74488;DHT22;63019;51.080;13.642;2022-12-10T06:40:57;1.00;99.90
74488;DHT22;63019;51.080;13.642;2022-12-10T06:41:59;1.00;99.90
74488;DHT22;63019;51.080;13.642;2022-12-10T06:43:01;1.00;99.90
74488;DHT22;63019;51.080;13.642;2022-12-10T06:44:07;1.00;99.90
74488;DHT22;63019;51.080;13.642;2022-12-10T06:45:09;1.00;99.90
74488;DHT22;63019;51.080;13.642;2022-12-10T06:46:13;1.00;99.90
74488;DHT22;63019;51.080;13.642;2022-12-10T06:47:15;1.00;99.90
74488;DHT22;63019;51.080;13.642;2022-12-10T06:48:17;1.00;99.90
74488;DHT22;63019;51.080;13.642;2022-12-10T06:49:19;1.00;99.90
74488;DHT22;63019;51.080;13.642;2022-12-10T06:50:21;0.90;99.90
74488;DHT22;63019;51.080;13.642;2022-12-10T06:51:22;0.90;99.90
74488;DHT22;63019;51.080;13.642;2022-12-10T06:52:25;0.90;99.90
74488;DHT22;63019;51.080;13.642;2022-12-10T06:53:26;0.90;99.90
74488;DHT22;63019;51.080;13.642;2022-12-10T06:54:29;0.90;99.90
74488;DHT22;63019;51.080;13.642;2022-12-10T06:55:31;0.90;99.90
74488;DHT22;63019;51.080;13.642;2022-12-10T06:56:32;0.90;99.90
74488;DHT22;63019;51.080;13.642;2022-12-10T06:57:34;0.90;99.90
74488;DHT22;63019;51.080;13.642;2022-12-10T06:58:36;0.90;99.90
74488;DHT22;63019;51.080;13.642;2022-12-10T06:59:39;0.90;99.90
74488;DHT22;63019;51.080;13.642;2022-12-10T07:00:41;0.90;99.90
74488;DHT22;63019;51.080;13.642;2022-12-10T07:01:42;0.90;99.90